Time;durP1;ratioP1;P1;durP2;ratioP2;P2;SDS_P1;SDS_P2;PMS_P1;PMS_P2;Temp;Humidity;BMP_temperature;BMP_pressure;BME280_temperature;BME280_humidity;BME280_pressure;Samples;Min_cycle;Max_cycle;Signal;HPM_P1;HPM_P2
2022/10/09 00:01:32;;;;;;;9.27;5.57;;;10.50;94.40;;;;;;5031073;28;20189;-71
2022/10/09 00:03:58;;;;;;;11.33;4.40;;;10.50;94.40;;;;;;5023605;28;20439;-71
2022/10/09 00:06:27;;;;;;;10.93;5.60;;;10.50;94.40;;;;;;5029428;28;20416;-72
2022/10/09 00:08:53;;;;;;;11.87;5.60;;;10.50;94.50;;;;;;5030998;28;20779;-71
2022/10/09 00:11:22;;;;;;;7.00;4.43;;;10.40;94.30;;;;;;5034106;28;20429;-71
2022/10/09 00:13:48;;;;;;;12.00;5.47;;;10.40;94.40;;;;;;5033061;28;20551;-72
2022/10/09 00:16:15;;;;;;;12.50;6.37;;;10.40;94.20;;;;;;5031920;28;20887;-70
2022/10/09 00:18:42;;;;;;;13.63;6.10;;;10.40;94.30;;;;;;5033892;28;20423;-70
2022/10/09 00:21:28;;;;;;;11.00;5.80;;;10.40;94.30;;;;;;5033957;28;21101;-69
2022/10/09 00:23:56;;;;;;;10.80;6.43;;;10.40;94.20;;;;;;5031487;28;20760;-71
2022/10/09 00:26:22;;;;;;;11.60;6.20;;;10.30;94.10;;;;;;5031941;28;20436;-71
2022/10/09 00:28:48;;;;;;;12.07;6.43;;;10.20;94.20;;;;;;5033690;28;20821;-70
2022/10/09 00:31:15;;;;;;;11.83;6.50;;;10.20;94.30;;;;;;5033853;28;20423;-71
2022/10/09 00:33:40;;;;;;;9.10;5.60;;;10.10;94.20;;;;;;5033102;28;20811;-72
2022/10/09 00:36:13;;;;;;;12.73;5.80;;;10.10;94.40;;;;;;5028993;28;20467;-70
2022/10/09 00:38:39;;;;;;;10.50;5.00;;;10.10;94.40;;;;;;5033346;28;20283;-71
2022/10/09 00:41:05;;;;;;;8.40;5.57;;;10.10;94.70;;;;;;5032019;28;20476;-71
2022/10/09 00:43:49;;;;;;;8.43;4.80;;;10.10;94.80;;;;;;5032794;28;20196;-70
2022/10/09 00:46:35;;;;;;;10.00;4.40;;;10.10;94.90;;;;;;5028309;28;20947;-71
2022/10/09 00:49:09;;;;;;;10.77;4.70;;;10.10;94.80;;;;;;5028607;28;20420;-70
2022/10/09 00:51:35;;;;;;;8.97;4.60;;;10.10;94.80;;;;;;5033073;28;20415;-72
2022/10/09 00:54:08;;;;;;;11.23;4.60;;;10.10;94.80;;;;;;5030898;28;20424;-70
2022/10/09 00:56:34;;;;;;;11.23;4.27;;;10.10;94.90;;;;;;5030828;28;20475;-72
2022/10/09 00:59:01;;;;;;;8.60;5.03;;;10.10;94.80;;;;;;5033739;28;20503;-70
2022/10/09 01:01:27;;;;;;;7.70;4.60;;;10.10;94.80;;;;;;5033873;28;20598;-70
2022/10/09 01:03:53;;;;;;;6.90;4.83;;;10.00;94.70;;;;;;5034507;28;20523;-71
2022/10/09 01:06:58;;;;;;;12.07;5.13;;;10.00;94.70;;;;;;5032232;28;20197;-68
2022/10/09 01:09:40;;;;;;;9.07;4.70;;;10.00;94.90;;;;;;5034065;28;20197;-70
2022/10/09 01:12:21;;;;;;;10.50;5.20;;;9.90;94.90;;;;;;5036673;28;20812;-72
2022/10/09 01:15:05;;;;;;;6.70;4.80;;;9.90;95.00;;;;;;5030147;28;20458;-69
2022/10/09 01:18:02;;;;;;;6.43;4.63;;;9.80;94.90;;;;;;5031485;28;20463;-69
2022/10/09 01:20:43;;;;;;;11.73;6.60;;;9.80;95.00;;;;;;5027162;28;20512;-71
2022/10/09 01:23:15;;;;;;;10.60;6.30;;;9.80;94.90;;;;;;5028921;28;20473;-70
2022/10/09 01:26:01;;;;;;;14.47;5.87;;;9.80;95.10;;;;;;5028513;28;20495;-71
2022/10/09 01:28:29;;;;;;;8.03;5.30;;;9.80;95.00;;;;;;5023782;28;20421;-71
2022/10/09 01:31:01;;;;;;;7.33;5.10;;;9.80;95.10;;;;;;5032735;28;20439;-71
2022/10/09 01:33:29;;;;;;;12.43;6.00;;;9.70;95.10;;;;;;5032395;28;20428;-71
2022/10/09 01:35:55;;;;;;;11.90;5.80;;;9.70;95.20;;;;;;5030164;28;20465;-70
2022/10/09 01:38:23;;;;;;;8.20;5.37;;;9.70;95.10;;;;;;5032578;28;20590;-70
2022/10/09 01:40:51;;;;;;;8.23;5.00;;;9.70;95.00;;;;;;5026432;28;21145;-70
2022/10/09 01:43:16;;;;;;;8.20;5.63;;;9.70;95.00;;;;;;5030666;28;20463;-72
2022/10/09 01:45:44;;;;;;;12.57;4.40;;;9.60;95.10;;;;;;5028145;28;20499;-71
2022/10/09 01:48:16;;;;;;;13.70;4.57;;;9.60;95.30;;;;;;5028277;28;20186;-71
2022/10/09 01:50:51;;;;;;;9.20;5.57;;;9.60;95.40;;;;;;5031950;28;20791;-70
2022/10/09 01:53:19;;;;;;;9.00;4.93;;;9.60;95.30;;;;;;5032390;28;20420;-70
2022/10/09 01:56:07;;;;;;;7.63;5.33;;;9.50;95.40;;;;;;5028109;28;20459;-70
2022/10/09 01:58:52;;;;;;;8.07;5.20;;;9.50;95.40;;;;;;5033191;28;20507;-70
2022/10/09 02:01:26;;;;;;;6.93;4.53;;;9.60;95.40;;;;;;5034034;28;20471;-70
2022/10/09 02:03:53;;;;;;;9.87;4.73;;;9.50;95.40;;;;;;5025371;28;20452;-71
2022/10/09 02:06:20;;;;;;;9.93;4.97;;;9.60;95.30;;;;;;5028459;28;20464;-71
2022/10/09 02:08:49;;;;;;;9.77;4.97;;;9.50;95.10;;;;;;5028660;28;20409;-71
2022/10/09 02:11:15;;;;;;;7.37;4.87;;;9.50;95.20;;;;;;5029250;28;20489;-70
2022/10/09 02:13:42;;;;;;;6.57;4.57;;;9.50;95.30;;;;;;5030302;28;20452;-70
2022/10/09 02:16:37;;;;;;;6.97;4.27;;;9.40;95.30;;;;;;5029037;28;20509;-72
2022/10/09 02:19:03;;;;;;;11.43;5.03;;;9.40;95.30;;;;;;5028423;28;20464;-70
2022/10/09 02:21:39;;;;;;;11.10;4.90;;;9.30;95.40;;;;;;5031943;28;20430;-72
2022/10/09 02:24:07;;;;;;;9.63;4.93;;;9.40;95.40;;;;;;5028598;28;20665;-71
2022/10/09 02:26:32;;;;;;;14.87;5.57;;;9.30;95.40;;;;;;5029155;28;20420;-71
2022/10/09 02:28:58;;;;;;;8.13;5.00;;;9.30;95.50;;;;;;5031730;28;20969;-70
2022/10/09 02:31:30;;;;;;;10.03;5.30;;;9.30;95.50;;;;;;5031228;28;20684;-72
2022/10/09 02:34:04;;;;;;;9.60;5.10;;;9.30;95.50;;;;;;5029738;28;20181;-69
2022/10/09 02:36:31;;;;;;;15.30;7.00;;;9.30;95.50;;;;;;5029555;28;20423;-69
2022/10/09 02:38:57;;;;;;;11.90;6.30;;;9.20;95.50;;;;;;5031996;28;20509;-68
2022/10/09 02:41:23;;;;;;;13.07;6.57;;;9.20;95.60;;;;;;5032280;28;20436;-69
2022/10/09 02:43:50;;;;;;;9.83;6.00;;;9.20;95.40;;;;;;5030015;28;20478;-71
2022/10/09 02:46:15;;;;;;;13.80;6.23;;;9.10;95.40;;;;;;5029336;28;20439;-70
2022/10/09 02:48:41;;;;;;;9.90;6.23;;;9.10;95.30;;;;;;5031529;28;20489;-69
2022/10/09 02:51:07;;;;;;;9.83;5.80;;;9.00;95.40;;;;;;5032989;28;20257;-70
2022/10/09 02:53:33;;;;;;;11.37;6.30;;;9.00;95.50;;;;;;5031357;28;20416;-70
2022/10/09 02:55:59;;;;;;;11.00;6.37;;;9.00;95.50;;;;;;5028173;28;20211;-70
2022/10/09 02:58:24;;;;;;;13.20;6.60;;;9.00;95.60;;;;;;5030956;28;20181;-70
2022/10/09 03:00:52;;;;;;;11.17;6.90;;;9.00;95.60;;;;;;5030764;28;20213;-71
2022/10/09 03:03:18;;;;;;;12.10;6.20;;;8.90;95.80;;;;;;5030252;28;20189;-72
2022/10/09 03:05:44;;;;;;;11.33;6.83;;;8.90;95.80;;;;;;5026970;28;20460;-71
2022/10/09 03:08:10;;;;;;;12.73;7.17;;;8.90;95.80;;;;;;5025721;28;20417;-70
2022/10/09 03:10:37;;;;;;;11.07;6.63;;;8.90;95.90;;;;;;5030616;28;20482;-71
2022/10/09 03:13:03;;;;;;;10.10;5.93;;;8.90;95.80;;;;;;5028620;28;20180;-70
2022/10/09 03:15:32;;;;;;;13.30;6.50;;;8.90;95.80;;;;;;5026563;28;20456;-69
2022/10/09 03:17:57;;;;;;;11.43;6.20;;;8.80;95.70;;;;;;5030557;28;20412;-73
2022/10/09 03:20:23;;;;;;;15.67;6.70;;;8.80;95.80;;;;;;5030443;28;20812;-71
2022/10/09 03:22:48;;;;;;;10.97;6.03;;;8.80;95.80;;;;;;5028627;28;20674;-70
2022/10/09 03:25:14;;;;;;;11.03;5.97;;;8.90;95.70;;;;;;5025731;28;20630;-72
2022/10/09 03:27:39;;;;;;;10.33;6.13;;;8.80;95.40;;;;;;5031114;28;20185;-71
2022/10/09 03:30:06;;;;;;;8.77;6.27;;;8.80;95.10;;;;;;5039517;28;20573;-71
2022/10/09 03:32:31;;;;;;;7.70;5.53;;;8.70;95.00;;;;;;5034906;28;20186;-70
2022/10/09 03:34:57;;;;;;;9.37;5.90;;;8.70;95.00;;;;;;5029502;28;21043;-70
2022/10/09 03:37:22;;;;;;;9.47;6.00;;;8.70;95.00;;;;;;5033598;28;20181;-72
2022/10/09 03:39:48;;;;;;;14.27;6.57;;;8.70;95.10;;;;;;5034091;28;20304;-70
2022/10/09 03:42:14;;;;;;;8.70;5.83;;;8.60;95.20;;;;;;5031059;28;20576;-71
2022/10/09 03:44:39;;;;;;;12.70;5.43;;;8.60;95.40;;;;;;5025246;28;20213;-72
2022/10/09 03:47:05;;;;;;;8.47;4.40;;;8.60;95.60;;;;;;5030901;28;20180;-73
2022/10/09 03:49:31;;;;;;;10.23;5.03;;;8.60;95.70;;;;;;5030432;28;20181;-71
2022/10/09 03:51:56;;;;;;;9.37;4.57;;;8.60;95.70;;;;;;5029995;28;20784;-71
2022/10/09 03:54:22;;;;;;;7.30;5.20;;;8.60;95.80;;;;;;5027524;28;20220;-71
2022/10/09 03:56:48;;;;;;;8.43;5.07;;;8.60;95.90;;;;;;5029872;28;20676;-71
2022/10/09 03:59:13;;;;;;;9.50;5.43;;;8.60;95.90;;;;;;5030035;28;20213;-71
2022/10/09 04:01:39;;;;;;;14.40;5.53;;;8.60;95.80;;;;;;5030103;28;20177;-73
2022/10/09 04:04:04;;;;;;;14.00;4.97;;;8.60;95.90;;;;;;5027942;28;20264;-71
2022/10/09 04:06:30;;;;;;;11.40;5.50;;;8.60;96.00;;;;;;5029086;28;20181;-72
2022/10/09 04:08:56;;;;;;;6.37;4.37;;;8.60;96.10;;;;;;5030398;28;20208;-71
2022/10/09 04:11:21;;;;;;;11.80;5.20;;;8.60;96.10;;;;;;5030137;28;20177;-71
2022/10/09 04:13:47;;;;;;;11.20;5.20;;;8.60;96.10;;;;;;5029500;28;20665;-73
2022/10/09 04:16:12;;;;;;;14.23;5.63;;;8.50;96.00;;;;;;5028237;28;20226;-70
2022/10/09 04:18:39;;;;;;;11.53;5.03;;;8.50;96.00;;;;;;5029297;28;20212;-72
2022/10/09 04:21:05;;;;;;;7.40;4.97;;;8.50;96.00;;;;;;5030060;28;20185;-72
2022/10/09 04:23:31;;;;;;;12.30;5.83;;;8.50;96.10;;;;;;5029538;28;20990;-71
2022/10/09 04:25:58;;;;;;;9.10;5.40;;;8.40;96.00;;;;;;5028800;28;20197;-71
2022/10/09 04:28:25;;;;;;;10.60;5.43;;;8.40;96.10;;;;;;5034321;28;20239;-72
2022/10/09 04:30:51;;;;;;;10.87;6.23;;;8.40;96.10;;;;;;5032364;28;20438;-72
2022/10/09 04:33:17;;;;;;;11.30;5.57;;;8.40;96.20;;;;;;5029418;28;20424;-72
2022/10/09 04:35:50;;;;;;;12.97;6.10;;;8.40;96.10;;;;;;5024965;28;20551;-74
2022/10/09 04:38:15;;;;;;;8.90;5.30;;;8.30;96.10;;;;;;5028483;28;20436;-71
2022/10/09 04:40:41;;;;;;;8.80;5.40;;;8.40;96.10;;;;;;5029610;28;20480;-71
2022/10/09 04:43:06;;;;;;;10.57;5.20;;;8.30;96.10;;;;;;5029118;28;20197;-69
2022/10/09 04:45:32;;;;;;;10.37;5.60;;;8.30;96.10;;;;;;5024718;28;20197;-71
2022/10/09 04:47:58;;;;;;;10.70;5.97;;;8.30;96.00;;;;;;5029758;28;20213;-72
2022/10/09 04:50:24;;;;;;;9.90;5.00;;;8.30;96.00;;;;;;5031432;28;20181;-72
2022/10/09 04:52:49;;;;;;;9.63;5.40;;;8.30;96.00;;;;;;5031449;28;20264;-70
2022/10/09 04:55:15;;;;;;;8.63;5.90;;;8.30;96.00;;;;;;5025107;28;20530;-71
2022/10/09 04:57:41;;;;;;;9.43;4.80;;;8.30;96.00;;;;;;5032520;28;20219;-71
2022/10/09 05:00:07;;;;;;;9.27;5.00;;;8.30;95.90;;;;;;5033975;28;20284;-71
2022/10/09 05:02:32;;;;;;;9.33;5.03;;;8.20;95.90;;;;;;5031406;28;20191;-70
2022/10/09 05:04:58;;;;;;;10.80;6.20;;;8.20;95.90;;;;;;5029119;28;20550;-71
2022/10/09 05:07:24;;;;;;;15.63;5.60;;;8.20;95.90;;;;;;5032497;28;20189;-70
2022/10/09 05:09:49;;;;;;;8.83;5.60;;;8.20;96.00;;;;;;5032079;28;20185;-72
2022/10/09 05:12:15;;;;;;;10.20;5.93;;;8.20;96.00;;;;;;5033088;28;20185;-70
2022/10/09 05:14:40;;;;;;;10.60;6.40;;;8.20;96.00;;;;;;5029526;28;20606;-71
2022/10/09 05:17:06;;;;;;;9.30;5.63;;;8.20;96.10;;;;;;5033221;28;20181;-71
2022/10/09 05:19:32;;;;;;;12.10;6.30;;;8.10;96.10;;;;;;5033298;28;20205;-71
2022/10/09 05:22:01;;;;;;;10.70;5.50;;;8.10;96.10;;;;;;5030651;28;20181;-70
2022/10/09 05:24:27;;;;;;;7.77;5.20;;;8.00;96.20;;;;;;5031004;28;20498;-69
2022/10/09 05:26:53;;;;;;;8.07;5.57;;;8.10;96.30;;;;;;5032077;28;20435;-70
2022/10/09 05:29:19;;;;;;;12.40;6.00;;;8.10;96.20;;;;;;5034160;28;20420;-71
2022/10/09 05:31:44;;;;;;;17.07;7.23;;;8.10;96.10;;;;;;5033216;28;20474;-70
2022/10/09 05:34:10;;;;;;;11.47;6.37;;;8.00;96.10;;;;;;5030280;28;20209;-72
2022/10/09 05:36:36;;;;;;;11.87;6.40;;;8.00;96.10;;;;;;5031656;28;20185;-71
2022/10/09 05:39:02;;;;;;;9.20;5.33;;;8.00;96.20;;;;;;5033340;28;20276;-71
2022/10/09 05:41:31;;;;;;;12.83;6.90;;;8.00;96.20;;;;;;5033567;28;20284;-71
2022/10/09 05:44:00;;;;;;;12.20;6.37;;;8.00;96.10;;;;;;5031253;28;20924;-72
2022/10/09 05:46:26;;;;;;;12.30;6.57;;;8.00;96.10;;;;;;5032561;28;20458;-72
2022/10/09 05:48:56;;;;;;;11.03;6.40;;;7.90;96.10;;;;;;5032669;28;20470;-70
2022/10/09 05:51:27;;;;;;;12.10;6.03;;;8.00;96.20;;;;;;5029429;28;20174;-71
2022/10/09 05:53:54;;;;;;;11.70;6.17;;;7.90;96.20;;;;;;5026256;28;20534;-71
2022/10/09 05:56:27;;;;;;;9.50;5.73;;;7.90;96.30;;;;;;5029177;28;20490;-71
2022/10/09 05:58:56;;;;;;;13.67;6.00;;;8.00;96.40;;;;;;5026877;28;20446;-71
2022/10/09 06:01:23;;;;;;;14.40;6.10;;;8.00;96.30;;;;;;5032644;28;20940;-72
2022/10/09 06:03:50;;;;;;;8.33;5.33;;;8.00;96.30;;;;;;5026907;28;20427;-72
2022/10/09 06:06:17;;;;;;;12.87;6.03;;;8.00;96.20;;;;;;5033334;28;20440;-70
2022/10/09 06:08:42;;;;;;;14.00;5.93;;;8.00;96.20;;;;;;5038202;28;20424;-71
2022/10/09 06:11:13;;;;;;;11.83;6.47;;;8.00;96.10;;;;;;5043119;28;20795;-72
2022/10/09 06:13:40;;;;;;;11.83;7.13;;;8.00;96.20;;;;;;5040401;28;20196;-71
2022/10/09 06:16:06;;;;;;;8.17;5.60;;;8.10;96.30;;;;;;5043075;28;20513;-71
2022/10/09 06:18:32;;;;;;;9.57;6.53;;;8.10;96.30;;;;;;5042741;28;20427;-71
2022/10/09 06:21:00;;;;;;;12.07;7.20;;;8.10;96.20;;;;;;5036241;28;20482;-71
2022/10/09 06:23:26;;;;;;;12.40;7.07;;;8.10;96.20;;;;;;5036107;28;20192;-72
2022/10/09 06:25:54;;;;;;;21.30;7.27;;;8.20;96.10;;;;;;5029379;28;20455;-72
2022/10/09 06:28:21;;;;;;;12.63;7.70;;;8.20;95.90;;;;;;5032384;28;20432;-72
2022/10/09 06:30:47;;;;;;;12.67;8.17;;;8.20;95.90;;;;;;5032139;28;20518;-72
2022/10/09 06:33:13;;;;;;;10.13;7.30;;;8.20;95.90;;;;;;5032101;28;20427;-72
2022/10/09 06:35:39;;;;;;;16.00;7.70;;;8.20;96.00;;;;;;5028661;28;20902;-72
2022/10/09 06:38:05;;;;;;;11.00;7.60;;;8.20;96.00;;;;;;5032300;28;20458;-72
2022/10/09 06:40:34;;;;;;;14.87;6.80;;;8.20;95.90;;;;;;5033936;28;20209;-71
2022/10/09 06:43:00;;;;;;;10.63;6.83;;;8.20;96.00;;;;;;5040736;28;20201;-71
2022/10/09 06:45:25;;;;;;;11.93;6.23;;;8.30;95.90;;;;;;5035206;28;20576;-71
2022/10/09 06:47:51;;;;;;;14.50;7.47;;;8.30;95.60;;;;;;5032053;28;20181;-71
2022/10/09 06:50:16;;;;;;;15.60;7.83;;;8.30;94.90;;;;;;5032285;28;20581;-71
2022/10/09 06:52:42;;;;;;;18.03;7.33;;;8.40;94.50;;;;;;5031707;28;20219;-71
2022/10/09 06:55:08;;;;;;;17.27;8.50;;;8.40;94.30;;;;;;5027505;28;20213;-71
2022/10/09 06:57:33;;;;;;;11.03;7.40;;;8.30;94.30;;;;;;5031725;28;20268;-72
2022/10/09 06:59:59;;;;;;;13.30;8.10;;;8.20;94.30;;;;;;5032036;28;20205;-72
2022/10/09 07:02:24;;;;;;;14.80;7.17;;;8.20;94.50;;;;;;5031715;28;20174;-72
2022/10/09 07:04:50;;;;;;;15.43;7.73;;;8.30;94.80;;;;;;5028601;28;20201;-71
2022/10/09 07:07:15;;;;;;;13.07;8.50;;;8.40;94.80;;;;;;5032139;28;20182;-72
2022/10/09 07:09:41;;;;;;;14.90;8.50;;;8.40;94.90;;;;;;5027679;28;20193;-71
2022/10/09 07:12:06;;;;;;;15.83;9.33;;;8.40;94.90;;;;;;5025888;28;20277;-74
2022/10/09 07:14:32;;;;;;;17.33;8.00;;;8.50;95.00;;;;;;5030312;28;20251;-73
2022/10/09 07:16:57;;;;;;;14.90;8.60;;;8.50;94.90;;;;;;5031660;28;20242;-72
2022/10/09 07:19:23;;;;;;;15.07;8.37;;;8.50;94.90;;;;;;5032017;28;20205;-71
2022/10/09 07:21:49;;;;;;;13.23;8.60;;;8.60;94.90;;;;;;5031828;28;20185;-71
2022/10/09 07:24:15;;;;;;;12.63;8.50;;;8.60;94.60;;;;;;5030109;28;20284;-71
2022/10/09 07:26:44;;;;;;;17.30;8.30;;;8.60;94.60;;;;;;5032234;28;20415;-72
2022/10/09 07:29:12;;;;;;;12.87;8.13;;;8.60;94.60;;;;;;5032527;28;20503;-72
2022/10/09 07:31:37;;;;;;;11.47;7.63;;;8.70;94.60;;;;;;5033057;28;20424;-72
2022/10/09 07:34:05;;;;;;;15.57;8.47;;;8.80;94.50;;;;;;5031398;28;20424;-72
2022/10/09 07:36:30;;;;;;;14.87;8.83;;;8.80;94.40;;;;;;5041230;28;20192;-70
2022/10/09 07:38:57;;;;;;;14.70;8.50;;;8.90;94.40;;;;;;5039901;28;20424;-72
2022/10/09 07:41:24;;;;;;;17.93;10.57;;;8.90;94.20;;;;;;5032647;28;20208;-71
2022/10/09 07:43:50;;;;;;;14.77;9.53;;;9.00;94.10;;;;;;5030644;28;20447;-72
2022/10/09 07:46:18;;;;;;;13.83;8.80;;;9.00;94.10;;;;;;5027359;28;20954;-71
2022/10/09 07:48:44;;;;;;;13.83;8.77;;;9.10;93.90;;;;;;5031166;28;20428;-70
2022/10/09 07:51:19;;;;;;;14.10;8.20;;;9.10;93.80;;;;;;5029908;28;20423;-72
2022/10/09 07:53:44;;;;;;;19.13;8.20;;;9.20;93.70;;;;;;5032400;28;20422;-71
2022/10/09 07:56:21;;;;;;;17.10;8.70;;;9.20;93.60;;;;;;5026058;28;20914;-73
2022/10/09 07:58:52;;;;;;;12.33;7.40;;;9.30;93.60;;;;;;5032326;28;20195;-71
2022/10/09 08:01:18;;;;;;;15.50;8.13;;;9.30;93.40;;;;;;5034920;28;20964;-72
2022/10/09 08:03:44;;;;;;;13.80;8.00;;;9.30;93.40;;;;;;5029696;28;20432;-72
2022/10/09 08:06:10;;;;;;;12.93;8.17;;;9.40;93.40;;;;;;5029812;28;20454;-71
2022/10/09 08:08:35;;;;;;;15.97;8.77;;;9.50;93.40;;;;;;5030217;28;20507;-75
2022/10/09 08:11:08;;;;;;;12.63;6.90;;;9.50;93.40;;;;;;5030458;28;20181;-72
2022/10/09 08:13:34;;;;;;;19.20;8.27;;;9.60;93.20;;;;;;5024796;28;20181;-73
2022/10/09 08:16:00;;;;;;;14.20;8.47;;;9.70;93.10;;;;;;5026951;28;20817;-72
2022/10/09 08:18:25;;;;;;;11.27;6.80;;;9.80;92.40;;;;;;5028441;28;20279;-73
2022/10/09 08:21:09;;;;;;;12.90;8.07;;;9.90;92.40;;;;;;5029856;28;20224;-72
2022/10/09 08:23:35;;;;;;;12.23;7.90;;;9.90;91.70;;;;;;5029331;28;20239;-73
2022/10/09 08:26:01;;;;;;;12.43;7.30;;;10.00;91.70;;;;;;5025421;28;20451;-73
2022/10/09 08:28:27;;;;;;;14.87;8.83;;;10.10;91.50;;;;;;5029552;28;20227;-74
2022/10/09 08:30:53;;;;;;;13.53;7.37;;;10.20;91.10;;;;;;5033784;28;20818;-75
2022/10/09 08:33:20;;;;;;;12.90;7.10;;;10.30;90.60;;;;;;5027653;28;20196;-73
2022/10/09 08:35:48;;;;;;;14.30;7.83;;;10.30;90.30;;;;;;5028347;28;20254;-73
2022/10/09 08:38:13;;;;;;;14.00;7.30;;;10.40;90.20;;;;;;5031547;28;20434;-76
2022/10/09 08:41:01;;;;;;;14.13;7.40;;;10.50;89.20;;;;;;5031039;28;20463;-74
2022/10/09 08:43:31;;;;;;;12.00;6.50;;;10.60;88.60;;;;;;5030045;28;20427;-72
2022/10/09 08:46:02;;;;;;;11.90;6.47;;;10.70;88.10;;;;;;5031351;28;20483;-72
2022/10/09 08:48:28;;;;;;;16.43;7.70;;;10.80;88.00;;;;;;5028445;28;20531;-73
2022/10/09 08:50:56;;;;;;;14.47;7.20;;;10.90;87.60;;;;;;5032729;28;20797;-73
2022/10/09 08:53:46;;;;;;;12.63;7.20;;;11.00;87.40;;;;;;5029075;28;20420;-74
2022/10/09 08:56:14;;;;;;;11.37;6.80;;;11.20;86.80;;;;;;5029857;28;20458;-72
2022/10/09 08:58:42;;;;;;;10.23;6.70;;;11.30;86.50;;;;;;5032115;28;20431;-74
2022/10/09 09:01:38;;;;;;;15.03;6.37;;;11.40;85.70;;;;;;5026327;28;20517;-74
2022/10/09 09:04:09;;;;;;;10.83;6.10;;;11.60;85.50;;;;;;5028886;28;20908;-74
2022/10/09 09:06:50;;;;;;;11.53;5.97;;;11.70;85.00;;;;;;5031468;28;20515;-74
2022/10/09 09:09:18;;;;;;;8.70;6.23;;;11.90;84.10;;;;;;5027621;28;20422;-73
2022/10/09 09:12:03;;;;;;;9.80;6.40;;;12.00;83.30;;;;;;5031411;28;20503;-73
2022/10/09 09:14:50;;;;;;;10.37;5.60;;;12.10;83.10;;;;;;5031218;28;20451;-72
2022/10/09 09:17:41;;;;;;;10.37;6.13;;;12.30;82.20;;;;;;5032613;28;20514;-72
2022/10/09 09:20:22;;;;;;;10.17;6.00;;;12.60;80.60;;;;;;5026879;28;20471;-75
2022/10/09 09:22:48;;;;;;;7.70;4.50;;;12.80;80.30;;;;;;5033500;28;20479;-74
2022/10/09 09:25:21;;;;;;;8.43;4.30;;;12.90;78.90;;;;;;5031853;28;20623;-74
2022/10/09 09:27:47;;;;;;;9.60;4.53;;;13.00;77.80;;;;;;5037483;28;20416;-72
2022/10/09 09:30:19;;;;;;;8.03;5.00;;;13.10;76.50;;;;;;5034096;28;20761;-72
2022/10/09 09:33:07;;;;;;;7.33;4.53;;;13.30;76.80;;;;;;5031402;28;20481;-72
2022/10/09 09:35:45;;;;;;;8.23;4.00;;;13.40;75.20;;;;;;5030695;28;20804;-72
2022/10/09 09:38:12;;;;;;;6.13;3.50;;;13.60;73.50;;;;;;5027194;28;20501;-72
2022/10/09 09:40:38;;;;;;;9.97;3.73;;;13.70;73.20;;;;;;5032129;28;20540;-72
2022/10/09 09:43:15;;;;;;;7.30;3.87;;;13.80;73.20;;;;;;5025302;28;20931;-72
2022/10/09 09:45:42;;;;;;;4.20;2.83;;;14.00;72.60;;;;;;5023138;28;20492;-73
2022/10/09 09:48:31;;;;;;;5.53;2.90;;;14.10;70.70;;;;;;5032528;28;20412;-75
2022/10/09 09:50:58;;;;;;;7.60;3.07;;;14.20;70.40;;;;;;5032803;28;20936;-73
2022/10/09 09:53:38;;;;;;;6.30;2.80;;;14.20;69.10;;;;;;5032091;28;20591;-74
2022/10/09 09:56:04;;;;;;;7.30;3.60;;;14.40;69.40;;;;;;5028859;28;20794;-74
2022/10/09 09:58:34;;;;;;;7.10;3.33;;;14.50;69.80;;;;;;5032522;28;20932;-73
2022/10/09 10:01:02;;;;;;;5.40;3.00;;;14.50;69.70;;;;;;5033612;28;20889;-74
2022/10/09 10:03:28;;;;;;;8.47;2.60;;;14.60;69.40;;;;;;5030313;28;20420;-73
2022/10/09 10:05:54;;;;;;;4.97;2.90;;;14.70;68.00;;;;;;5028967;28;20456;-73
2022/10/09 10:08:24;;;;;;;7.27;2.90;;;14.80;68.20;;;;;;5033409;28;20436;-72
2022/10/09 10:10:52;;;;;;;4.00;2.60;;;14.80;67.00;;;;;;5031419;28;20190;-73
2022/10/09 10:13:22;;;;;;;5.63;2.70;;;14.90;67.70;;;;;;5034212;28;20523;-73
2022/10/09 10:15:53;;;;;;;4.63;2.80;;;15.10;68.00;;;;;;5029770;28;21050;-74
2022/10/09 10:18:21;;;;;;;5.40;3.03;;;15.10;67.30;;;;;;5034233;28;20431;-73
2022/10/09 10:20:49;;;;;;;4.90;2.80;;;15.20;66.90;;;;;;5033718;28;20967;-74
2022/10/09 10:23:20;;;;;;;3.37;2.43;;;15.30;66.30;;;;;;5032843;28;20495;-73
2022/10/09 10:25:46;;;;;;;5.33;2.63;;;15.50;65.70;;;;;;5032329;28;20464;-74
2022/10/09 10:28:18;;;;;;;4.07;2.70;;;15.80;64.80;;;;;;5034049;28;20420;-73
2022/10/09 10:30:45;;;;;;;5.70;2.40;;;16.20;63.40;;;;;;5033542;28;20430;-74
2022/10/09 10:33:20;;;;;;;4.30;2.67;;;16.70;62.90;;;;;;5034097;28;20919;-72
2022/10/09 10:35:50;;;;;;;6.00;2.47;;;17.30;60.60;;;;;;5033175;28;20446;-75
2022/10/09 10:38:35;;;;;;;4.17;2.57;;;17.60;58.50;;;;;;5029051;28;20431;-74
2022/10/09 10:41:07;;;;;;;6.90;2.80;;;17.90;56.90;;;;;;5032230;28;20533;-75
2022/10/09 10:43:50;;;;;;;9.83;2.87;;;18.00;56.50;;;;;;5033825;28;20448;-74
2022/10/09 10:46:27;;;;;;;5.30;2.77;;;18.10;56.80;;;;;;5025687;28;20458;-73
2022/10/09 10:48:52;;;;;;;5.93;2.50;;;18.60;55.00;;;;;;5034231;28;20478;-74
2022/10/09 10:51:36;;;;;;;4.53;2.47;;;18.70;54.20;;;;;;5033632;28;20424;-73
2022/10/09 10:54:14;;;;;;;4.10;2.50;;;18.50;53.80;;;;;;5025751;28;20182;-72
2022/10/09 10:56:49;;;;;;;3.20;2.17;;;18.30;54.60;;;;;;5031935;28;20419;-74
2022/10/09 10:59:36;;;;;;;3.83;2.00;;;18.90;54.00;;;;;;5033499;28;21025;-73
2022/10/09 11:02:25;;;;;;;5.50;2.80;;;18.80;53.20;;;;;;5026545;28;20511;-72
2022/10/09 11:04:59;;;;;;;3.80;1.93;;;18.70;52.40;;;;;;5028520;28;20452;-73
2022/10/09 11:07:39;;;;;;;3.43;2.17;;;18.60;53.30;;;;;;5030846;28;20450;-73
2022/10/09 11:10:15;;;;;;;3.40;2.20;;;18.70;51.80;;;;;;5029020;28;20415;-72
2022/10/09 11:12:59;;;;;;;6.30;2.20;;;18.80;51.70;;;;;;5030493;28;21149;-74
2022/10/09 11:15:46;;;;;;;6.17;2.13;;;18.80;52.40;;;;;;5023663;28;20820;-72
2022/10/09 11:18:22;;;;;;;5.60;3.17;;;19.00;52.40;;;;;;5026159;28;20956;-73
2022/10/09 11:21:13;;;;;;;7.67;4.10;;;19.00;52.00;;;;;;5029993;28;20470;-70
2022/10/09 11:24:05;;;;;;;4.60;2.20;;;19.20;51.30;;;;;;5026727;28;20430;-71
2022/10/09 11:26:35;;;;;;;3.50;2.30;;;18.70;52.10;;;;;;5027739;28;20427;-72
2022/10/09 11:29:24;;;;;;;4.30;1.97;;;18.90;51.40;;;;;;5030194;28;21150;-71
2022/10/09 11:31:55;;;;;;;4.00;2.10;;;18.90;51.60;;;;;;5010681;28;20992;-72
2022/10/09 11:34:31;;;;;;;6.50;2.57;;;18.90;51.60;;;;;;5019688;28;20516;-73
2022/10/09 11:36:59;;;;;;;8.87;2.10;;;18.90;52.00;;;;;;5024485;28;20412;-73
2022/10/09 11:39:27;;;;;;;3.87;2.17;;;18.70;52.20;;;;;;5028098;28;20470;-72
2022/10/09 11:41:53;;;;;;;3.23;2.20;;;18.90;52.50;;;;;;5023934;28;20898;-73
2022/10/09 11:44:38;;;;;;;3.67;2.07;;;19.10;51.30;;;;;;5024578;28;20460;-73
2022/10/09 11:47:09;;;;;;;2.60;1.77;;;19.10;50.70;;;;;;5026232;28;20412;-74
2022/10/09 11:50:01;;;;;;;9.87;2.63;;;19.00;51.30;;;;;;5024784;28;20509;-72
2022/10/09 11:52:34;;;;;;;3.13;2.23;;;19.20;51.00;;;;;;5024297;28;20803;-74
2022/10/09 11:55:17;;;;;;;5.73;2.67;;;19.40;50.30;;;;;;5022476;28;20464;-74
2022/10/09 11:57:43;;;;;;;4.40;2.40;;;19.10;50.90;;;;;;5027684;28;20479;-74
2022/10/09 12:00:09;;;;;;;3.10;2.20;;;19.00;51.60;;;;;;5027474;28;20467;-74
2022/10/09 12:02:36;;;;;;;3.47;2.13;;;19.00;51.70;;;;;;5025895;28;20185;-72
2022/10/09 12:05:29;;;;;;;3.00;2.03;;;18.90;51.80;;;;;;5021080;28;20478;-73
2022/10/09 12:08:10;;;;;;;4.20;2.20;;;18.80;52.10;;;;;;5023174;28;20417;-73
2022/10/09 12:10:40;;;;;;;4.77;2.07;;;19.10;51.00;;;;;;5026614;28;20466;-74
2022/10/09 12:13:23;;;;;;;3.37;2.00;;;19.10;51.30;;;;;;5024935;28;20466;-73
2022/10/09 12:15:49;;;;;;;3.93;2.20;;;19.00;51.30;;;;;;5024984;28;20464;-75
2022/10/09 12:18:24;;;;;;;6.30;2.80;;;18.80;52.40;;;;;;5025673;28;20522;-75
2022/10/09 12:20:51;;;;;;;3.90;2.00;;;18.70;52.50;;;;;;5029783;28;20215;-76
2022/10/09 12:23:22;;;;;;;2.90;2.17;;;18.50;52.90;;;;;;5025525;28;20523;-74
2022/10/09 12:25:49;;;;;;;2.87;2.00;;;18.80;52.90;;;;;;5022541;28;20565;-74
2022/10/09 12:28:37;;;;;;;9.63;2.87;;;18.80;53.00;;;;;;5029055;28;20932;-76
2022/10/09 12:31:07;;;;;;;5.37;2.70;;;19.00;52.40;;;;;;5026238;28;20411;-75
2022/10/09 12:33:37;;;;;;;6.27;3.20;;;18.90;52.40;;;;;;5029853;28;20416;-74
2022/10/09 12:36:13;;;;;;;4.03;2.13;;;19.00;52.10;;;;;;5023289;28;20840;-75
2022/10/09 12:38:39;;;;;;;4.40;2.40;;;18.90;51.80;;;;;;5021660;28;20444;-75
2022/10/09 12:41:13;;;;;;;3.60;2.47;;;18.90;51.70;;;;;;5027070;28;20468;-73
2022/10/09 12:43:44;;;;;;;3.80;2.20;;;18.50;52.80;;;;;;5027055;28;20432;-74
2022/10/09 12:46:09;;;;;;;4.93;2.43;;;18.60;52.40;;;;;;5023592;28;20506;-74
2022/10/09 12:48:41;;;;;;;4.70;2.60;;;18.50;52.10;;;;;;5026955;28;20506;-75
2022/10/09 12:51:18;;;;;;;5.53;2.20;;;18.60;52.10;;;;;;5029323;28;20191;-74
2022/10/09 12:53:49;;;;;;;4.00;2.93;;;18.60;52.40;;;;;;5027210;28;20458;-74
2022/10/09 12:56:21;;;;;;;3.23;2.50;;;18.50;52.50;;;;;;5020506;28;20452;-74
2022/10/09 12:58:47;;;;;;;4.23;2.50;;;18.70;52.50;;;;;;5033786;28;20421;-73
2022/10/09 13:01:14;;;;;;;4.27;2.40;;;19.10;52.10;;;;;;5041885;28;20554;-73
2022/10/09 13:03:43;;;;;;;4.67;2.47;;;19.40;51.00;;;;;;5039452;28;20466;-72